Time;durP1;ratioP1;P1;durP2;ratioP2;P2;SDS_P1;SDS_P2;PMS_P1;PMS_P2;Temp;Humidity;BMP_temperature;BMP_pressure;BME280_temperature;BME280_humidity;BME280_pressure;Samples;Min_cycle;Max_cycle;Signal;HPM_P1;HPM_P2
2023/07/02 00:02:18;;;;;;;16.33;14.57;;;14.70;99.90;;;;;;4883724;29;20032;-78
2023/07/02 00:04:44;;;;;;;18.92;17.02;;;14.60;99.90;;;;;;4872746;29;20040;-78
2023/07/02 00:07:09;;;;;;;16.38;14.80;;;14.60;99.90;;;;;;4880664;29;20041;-78
2023/07/02 00:09:35;;;;;;;16.80;15.13;;;14.60;99.90;;;;;;4881273;29;20420;-78
2023/07/02 00:12:01;;;;;;;15.55;13.02;;;14.60;99.90;;;;;;4868751;29;20037;-78
2023/07/02 00:14:26;;;;;;;15.18;13.20;;;14.60;99.90;;;;;;4881199;29;20061;-78
2023/07/02 00:16:52;;;;;;;15.02;11.95;;;14.60;99.90;;;;;;4882327;29;20029;-78
2023/07/02 00:19:17;;;;;;;17.75;12.95;;;14.60;99.90;;;;;;4862460;29;20115;-78
2023/07/02 00:21:43;;;;;;;14.88;12.95;;;14.60;99.90;;;;;;4880749;29;20037;-78
2023/07/02 00:24:09;;;;;;;17.33;13.43;;;14.60;99.90;;;;;;4880372;29;20041;-77
2023/07/02 00:26:37;;;;;;;16.70;12.40;;;14.60;99.90;;;;;;4880632;29;20132;-78
2023/07/02 00:29:04;;;;;;;14.80;11.10;;;14.60;99.90;;;;;;4880738;29;20044;-78
2023/07/02 00:31:29;;;;;;;17.33;11.88;;;14.60;99.90;;;;;;4865097;29;20040;-78
2023/07/02 00:33:55;;;;;;;18.08;12.13;;;14.60;99.90;;;;;;4873938;29;20559;-78
2023/07/02 00:36:20;;;;;;;16.50;9.77;;;14.50;99.90;;;;;;4872358;29;20056;-78
2023/07/02 00:38:48;;;;;;;17.60;12.10;;;14.40;99.90;;;;;;4873142;29;20039;-78
2023/07/02 00:41:14;;;;;;;15.35;10.95;;;14.40;99.90;;;;;;4880122;29;20047;-78
2023/07/02 00:43:43;;;;;;;22.65;11.82;;;14.40;99.90;;;;;;4864180;29;20036;-78
2023/07/02 00:46:21;;;;;;;16.58;11.20;;;14.30;99.90;;;;;;4873117;29;20139;-78
2023/07/02 00:48:55;;;;;;;18.20;11.32;;;14.30;99.90;;;;;;4873576;29;20048;-78
2023/07/02 00:51:23;;;;;;;17.73;13.10;;;14.20;99.90;;;;;;4885876;29;20114;-78
2023/07/02 00:53:50;;;;;;;22.55;13.00;;;14.10;99.90;;;;;;4880509;29;20133;-79
2023/07/02 00:56:17;;;;;;;19.33;12.18;;;14.10;99.90;;;;;;4864341;29;20037;-78
2023/07/02 00:58:50;;;;;;;20.55;12.43;;;14.00;99.90;;;;;;4872675;29;20545;-78
2023/07/02 01:01:18;;;;;;;21.92;12.80;;;13.90;99.90;;;;;;4880829;29;20032;-78
2023/07/02 01:04:12;;;;;;;22.00;12.38;;;13.90;99.90;;;;;;4887973;29;20071;-78
2023/07/02 01:06:41;;;;;;;23.40;13.18;;;13.80;99.90;;;;;;4878446;29;20120;-78
2023/07/02 01:09:07;;;;;;;23.15;12.93;;;13.80;99.90;;;;;;4878229;29;20044;-78
2023/07/02 01:11:42;;;;;;;23.45;14.27;;;13.70;99.90;;;;;;4877009;29;20506;-78
2023/07/02 01:14:24;;;;;;;23.23;12.50;;;13.50;99.90;;;;;;4875904;29;20166;-77
2023/07/02 01:16:51;;;;;;;21.45;13.40;;;13.50;99.90;;;;;;4864512;29;20036;-78
2023/07/02 01:19:33;;;;;;;26.15;14.05;;;13.40;99.90;;;;;;4879469;29;20091;-78
2023/07/02 01:22:00;;;;;;;21.98;13.32;;;13.40;99.90;;;;;;4874200;29;20092;-78
2023/07/02 01:24:26;;;;;;;24.38;13.40;;;13.30;99.90;;;;;;4864910;29;20147;-78
2023/07/02 01:26:51;;;;;;;23.15;15.10;;;13.30;99.90;;;;;;4878605;29;20044;-77
2023/07/02 01:29:18;;;;;;;23.92;14.32;;;13.10;99.90;;;;;;4864468;29;20522;-78
2023/07/02 01:31:45;;;;;;;22.90;15.07;;;13.00;99.90;;;;;;4869259;29;20051;-78
2023/07/02 01:34:11;;;;;;;23.83;14.20;;;12.90;99.90;;;;;;4879556;29;20488;-78
2023/07/02 01:36:37;;;;;;;24.88;14.35;;;12.80;99.90;;;;;;4886986;29;20048;-78
2023/07/02 01:39:03;;;;;;;24.73;14.70;;;12.80;99.90;;;;;;4879992;29;20059;-78
2023/07/02 01:41:29;;;;;;;29.50;15.93;;;12.70;99.90;;;;;;4887752;29;20051;-78
2023/07/02 01:43:55;;;;;;;24.55;14.65;;;12.60;99.90;;;;;;4873313;29;20036;-78
2023/07/02 01:46:21;;;;;;;24.45;15.32;;;12.60;99.90;;;;;;4871944;29;20136;-78
2023/07/02 01:48:47;;;;;;;23.35;14.60;;;12.50;99.90;;;;;;4879797;29;20041;-78
2023/07/02 01:51:13;;;;;;;21.08;15.07;;;12.40;99.90;;;;;;4864163;29;20039;-78
2023/07/02 01:53:39;;;;;;;27.20;16.05;;;12.40;99.90;;;;;;4856262;29;20472;-78
2023/07/02 01:56:04;;;;;;;32.30;16.00;;;12.30;99.90;;;;;;4871527;29;20039;-77
2023/07/02 01:58:30;;;;;;;29.95;17.25;;;12.30;99.90;;;;;;4864268;29;20036;-78
2023/07/02 02:00:56;;;;;;;27.10;15.30;;;12.20;99.90;;;;;;4864136;29;20431;-78
2023/07/02 02:03:22;;;;;;;26.77;15.27;;;12.10;99.90;;;;;;4879189;29;20067;-78
2023/07/02 02:05:47;;;;;;;23.73;15.80;;;12.10;99.90;;;;;;4862676;29;20059;-77
2023/07/02 02:08:13;;;;;;;33.03;17.83;;;12.10;99.90;;;;;;4879203;29;20036;-78
2023/07/02 02:10:39;;;;;;;29.95;17.05;;;12.00;99.90;;;;;;4867735;29;20163;-77
2023/07/02 02:13:05;;;;;;;29.85;17.42;;;12.00;99.90;;;;;;4898074;29;20041;-77
2023/07/02 02:15:30;;;;;;;30.25;17.30;;;11.90;99.90;;;;;;4890921;29;20455;-77
2023/07/02 02:17:56;;;;;;;32.67;17.92;;;11.90;99.90;;;;;;4871467;29;20055;-78
2023/07/02 02:20:22;;;;;;;37.13;19.98;;;11.80;99.90;;;;;;4884978;29;20411;-78
2023/07/02 02:22:47;;;;;;;28.00;16.90;;;11.80;99.90;;;;;;4869921;29;20432;-78
2023/07/02 02:25:13;;;;;;;34.42;19.27;;;11.80;99.90;;;;;;4883229;29;20044;-78
2023/07/02 02:27:38;;;;;;;30.13;17.77;;;11.70;99.90;;;;;;4866635;29;20043;-78
2023/07/02 02:30:05;;;;;;;27.55;17.52;;;11.70;99.90;;;;;;4883219;29;20526;-78
2023/07/02 02:32:30;;;;;;;28.95;18.30;;;11.60;99.90;;;;;;4882497;29;20044;-78
2023/07/02 02:34:56;;;;;;;30.92;18.80;;;11.60;99.90;;;;;;4882396;29;20399;-78
2023/07/02 02:37:23;;;;;;;33.92;18.73;;;11.50;99.90;;;;;;4881718;29;20041;-77
2023/07/02 02:39:49;;;;;;;30.02;17.70;;;11.40;99.90;;;;;;4867244;29;20040;-78
2023/07/02 02:42:14;;;;;;;27.98;18.23;;;11.50;99.90;;;;;;4867366;29;20048;-78
2023/07/02 02:44:40;;;;;;;35.47;17.63;;;11.50;99.90;;;;;;4867373;29;20078;-78
2023/07/02 02:47:05;;;;;;;30.65;17.98;;;11.40;99.90;;;;;;4882265;29;20041;-78
2023/07/02 02:49:31;;;;;;;29.45;18.55;;;11.40;99.90;;;;;;4865948;29;20080;-78
2023/07/02 02:51:57;;;;;;;31.23;18.92;;;11.30;99.90;;;;;;4898265;29;20419;-78
2023/07/02 02:54:22;;;;;;;39.22;19.73;;;11.30;99.90;;;;;;4898349;29;20045;-78
2023/07/02 02:56:48;;;;;;;38.55;21.38;;;11.30;99.90;;;;;;4891019;29;20127;-78
2023/07/02 02:59:13;;;;;;;34.22;19.35;;;11.30;99.90;;;;;;4882488;29;20040;-78
2023/07/02 03:01:39;;;;;;;32.65;18.88;;;11.30;99.90;;;;;;4867160;29;20032;-78
2023/07/02 03:04:08;;;;;;;35.10;19.60;;;11.30;99.90;;;;;;4888421;29;20048;-78
2023/07/02 03:06:33;;;;;;;30.05;19.65;;;11.20;99.90;;;;;;4866696;29;20048;-78
2023/07/02 03:08:59;;;;;;;33.13;19.65;;;11.20;99.90;;;;;;4861362;29;20067;-78
2023/07/02 03:11:25;;;;;;;39.33;22.42;;;11.20;99.90;;;;;;4863799;29;20041;-78
2023/07/02 03:13:50;;;;;;;34.05;20.13;;;11.20;99.90;;;;;;4869402;29;20051;-78
2023/07/02 03:16:16;;;;;;;34.30;19.40;;;11.20;99.90;;;;;;4884249;29;20047;-78
2023/07/02 03:18:44;;;;;;;33.78;20.02;;;11.20;99.90;;;;;;4882020;29;20048;-80
2023/07/02 03:21:10;;;;;;;37.85;20.42;;;11.30;99.90;;;;;;4886136;29;20040;-79
2023/07/02 03:23:36;;;;;;;39.40;22.23;;;11.20;99.90;;;;;;4874482;29;20045;-78
2023/07/02 03:26:01;;;;;;;35.20;19.17;;;11.30;99.90;;;;;;4886283;29;20053;-78
2023/07/02 03:28:27;;;;;;;36.00;20.50;;;11.20;99.90;;;;;;4881941;29;20521;-78
2023/07/02 03:30:52;;;;;;;34.92;20.10;;;11.20;99.90;;;;;;4866891;29;20475;-79
2023/07/02 03:33:18;;;;;;;41.13;22.33;;;11.30;99.90;;;;;;4886112;29;20052;-78
2023/07/02 03:35:43;;;;;;;38.13;19.02;;;11.30;99.90;;;;;;4881150;29;20036;-78
2023/07/02 03:38:09;;;;;;;36.08;21.38;;;11.30;99.90;;;;;;4873279;29;20032;-78
2023/07/02 03:40:35;;;;;;;38.35;19.70;;;11.30;99.90;;;;;;4881766;29;20517;-78
2023/07/02 03:43:00;;;;;;;28.85;18.55;;;11.30;99.90;;;;;;4883902;29;20032;-79
2023/07/02 03:45:26;;;;;;;37.83;19.45;;;11.40;99.90;;;;;;4892925;29;20096;-78
2023/07/02 03:47:52;;;;;;;37.95;20.58;;;11.40;99.90;;;;;;4884634;29;20093;-78
2023/07/02 03:50:18;;;;;;;38.25;19.27;;;11.40;99.90;;;;;;4881569;29;20492;-78
2023/07/02 03:52:43;;;;;;;42.33;24.15;;;11.40;99.90;;;;;;4881573;29;20044;-79
2023/07/02 03:55:09;;;;;;;32.55;20.27;;;11.50;99.90;;;;;;4889277;29;20037;-78
2023/07/02 03:57:34;;;;;;;32.08;17.85;;;11.50;99.90;;;;;;4879264;29;20378;-78
2023/07/02 04:00:00;;;;;;;33.40;18.48;;;11.50;99.90;;;;;;4868153;29;20131;-78
2023/07/02 04:02:26;;;;;;;31.42;19.23;;;11.60;99.90;;;;;;4871979;29;20044;-78
2023/07/02 04:04:51;;;;;;;33.25;18.88;;;11.70;99.90;;;;;;4881598;29;20040;-78
2023/07/02 04:07:17;;;;;;;29.95;17.30;;;11.70;99.90;;;;;;4881586;29;20040;-78
2023/07/02 04:09:42;;;;;;;32.80;19.13;;;11.70;99.90;;;;;;4876390;29;20037;-78
2023/07/02 04:12:08;;;;;;;36.47;20.73;;;11.80;99.90;;;;;;4881112;29;20045;-78
2023/07/02 04:14:33;;;;;;;42.88;22.27;;;11.80;99.90;;;;;;4865069;29;20089;-78
2023/07/02 04:17:03;;;;;;;35.78;19.02;;;11.80;99.90;;;;;;4871245;29;20420;-78
2023/07/02 04:19:28;;;;;;;32.35;19.40;;;11.80;99.90;;;;;;4880854;29;20176;-78
2023/07/02 04:21:54;;;;;;;28.75;17.70;;;12.00;99.90;;;;;;4881417;29;20123;-78
2023/07/02 04:24:19;;;;;;;26.00;17.40;;;12.00;99.90;;;;;;4880108;29;20033;-78
2023/07/02 04:26:45;;;;;;;29.60;17.40;;;12.10;99.90;;;;;;4886086;29;20111;-78
2023/07/02 04:29:11;;;;;;;33.40;19.63;;;12.20;99.90;;;;;;4865776;29;20048;-78
2023/07/02 04:31:36;;;;;;;31.33;17.38;;;12.30;99.90;;;;;;4865011;29;20261;-78
2023/07/02 04:34:03;;;;;;;35.50;17.98;;;12.50;99.90;;;;;;4880551;29;20511;-78
2023/07/02 04:36:28;;;;;;;30.35;17.80;;;12.70;99.90;;;;;;4880100;29;20040;-78
2023/07/02 04:38:54;;;;;;;29.55;16.25;;;13.00;99.90;;;;;;4881378;29;20048;-78
2023/07/02 04:41:20;;;;;;;26.25;15.77;;;13.30;99.90;;;;;;4865144;29;20041;-78
2023/07/02 04:43:45;;;;;;;29.77;15.55;;;13.70;99.90;;;;;;4880406;29;20045;-78
2023/07/02 04:46:12;;;;;;;28.63;14.23;;;14.20;99.90;;;;;;4872612;29;20083;-79
2023/07/02 04:48:38;;;;;;;26.45;13.20;;;14.70;99.90;;;;;;4880635;29;20056;-79
2023/07/02 04:51:04;;;;;;;21.50;13.40;;;15.10;99.90;;;;;;4880785;29;20044;-79
2023/07/02 04:53:29;;;;;;;24.35;12.73;;;15.30;99.90;;;;;;4884185;29;20052;-79
2023/07/02 04:55:57;;;;;;;27.02;13.45;;;15.50;99.90;;;;;;4881643;29;20510;-79
2023/07/02 04:58:22;;;;;;;22.63;12.90;;;15.60;99.90;;;;;;4864659;29;20111;-79
2023/07/02 05:00:48;;;;;;;22.60;11.32;;;15.80;99.90;;;;;;4880189;29;20068;-79
2023/07/02 05:03:14;;;;;;;22.50;12.80;;;16.00;99.90;;;;;;4879143;29;20037;-79
2023/07/02 05:05:39;;;;;;;19.88;11.95;;;16.30;99.90;;;;;;4879062;29;20040;-79
2023/07/02 05:08:05;;;;;;;23.30;12.05;;;16.60;99.90;;;;;;4864849;29;20518;-79
2023/07/02 05:10:31;;;;;;;20.85;11.40;;;17.10;99.90;;;;;;4880733;29;20411;-79
2023/07/02 05:12:56;;;;;;;23.50;11.27;;;17.50;99.90;;;;;;4879291;29;20044;-79
2023/07/02 05:15:23;;;;;;;21.33;10.95;;;18.00;99.90;;;;;;4879559;29;20104;-79
2023/07/02 05:17:49;;;;;;;20.95;11.00;;;18.40;99.90;;;;;;4879574;29;20036;-79
2023/07/02 05:20:15;;;;;;;17.67;10.73;;;18.70;99.90;;;;;;4892533;29;20168;-79
2023/07/02 05:22:40;;;;;;;19.73;10.55;;;19.10;99.90;;;;;;4895273;29;20055;-79
2023/07/02 05:25:06;;;;;;;23.25;11.60;;;19.40;99.90;;;;;;4858407;29;20040;-79
2023/07/02 05:27:32;;;;;;;19.13;10.93;;;19.60;99.90;;;;;;4864678;29;20105;-79
2023/07/02 05:29:57;;;;;;;20.80;10.73;;;20.00;99.90;;;;;;4874324;29;20080;-79
2023/07/02 05:32:23;;;;;;;17.50;10.00;;;20.20;99.90;;;;;;4880430;29;20508;-79
2023/07/02 05:34:49;;;;;;;18.60;10.30;;;20.50;99.90;;;;;;4875149;29;20044;-79
2023/07/02 05:37:14;;;;;;;18.83;9.45;;;20.60;99.90;;;;;;4879276;29;20033;-79
2023/07/02 05:39:40;;;;;;;19.75;9.95;;;20.80;99.90;;;;;;4875974;29;20119;-79
2023/07/02 05:42:06;;;;;;;18.45;10.27;;;21.00;99.90;;;;;;4894996;29;20495;-79
2023/07/02 05:44:31;;;;;;;16.17;9.60;;;21.10;99.90;;;;;;4882793;29;20092;-79
2023/07/02 05:46:57;;;;;;;17.08;10.30;;;21.10;99.90;;;;;;4884357;29;20044;-79
2023/07/02 05:49:22;;;;;;;21.13;10.13;;;20.90;99.90;;;;;;4867663;29;20487;-78
2023/07/02 05:51:48;;;;;;;21.52;10.27;;;20.60;99.90;;;;;;4883017;29;20119;-79
2023/07/02 05:54:14;;;;;;;18.40;9.70;;;20.60;99.90;;;;;;4884008;29;20053;-80
2023/07/02 05:56:39;;;;;;;21.80;10.55;;;20.50;99.90;;;;;;4883891;29;20051;-79
2023/07/02 05:59:05;;;;;;;19.67;9.73;;;20.60;99.90;;;;;;4867201;29;20044;-79
2023/07/02 06:01:30;;;;;;;20.77;10.30;;;20.50;99.90;;;;;;4890338;29;20080;-79
2023/07/02 06:03:56;;;;;;;17.40;9.43;;;20.10;99.90;;;;;;4882999;29;20522;-79
2023/07/02 06:06:25;;;;;;;20.10;10.20;;;19.80;99.90;;;;;;4888265;29;20112;-79
2023/07/02 06:08:51;;;;;;;19.70;9.88;;;19.40;99.90;;;;;;4882475;29;20040;-79
2023/07/02 06:11:16;;;;;;;20.65;11.18;;;18.90;99.90;;;;;;4899295;29;20044;-80
2023/07/02 06:13:42;;;;;;;17.02;10.02;;;18.60;99.90;;;;;;4883715;29;20044;-79
2023/07/02 06:16:08;;;;;;;18.13;9.60;;;18.20;99.90;;;;;;4883483;29;20047;-78
2023/07/02 06:18:33;;;;;;;19.02;9.80;;;18.00;99.90;;;;;;4882368;29;20032;-79
2023/07/02 06:20:59;;;;;;;20.13;9.52;;;17.80;99.90;;;;;;4882904;29;20043;-79
2023/07/02 06:23:25;;;;;;;18.25;10.18;;;17.60;99.90;;;;;;4883713;29;20189;-79
2023/07/02 06:25:58;;;;;;;20.40;10.02;;;17.30;99.90;;;;;;4883819;29;20495;-78
2023/07/02 06:28:25;;;;;;;22.67;10.07;;;17.20;99.90;;;;;;4882100;29;20052;-79
2023/07/02 06:30:50;;;;;;;19.42;10.23;;;17.20;99.90;;;;;;4882232;29;20123;-79
2023/07/02 06:33:16;;;;;;;20.15;10.45;;;17.10;99.90;;;;;;4867506;29;20132;-78
2023/07/02 06:35:42;;;;;;;22.70;10.35;;;17.10;99.90;;;;;;4890816;29;20525;-78
2023/07/02 06:38:07;;;;;;;17.08;9.63;;;17.00;99.90;;;;;;4887469;29;20044;-78
2023/07/02 06:40:34;;;;;;;21.65;10.07;;;17.00;99.90;;;;;;4879352;29;20040;-78
2023/07/02 06:42:59;;;;;;;21.88;9.90;;;17.00;99.90;;;;;;4893263;29;20114;-78
2023/07/02 06:45:25;;;;;;;16.33;9.35;;;17.10;99.90;;;;;;4882461;29;20135;-81
2023/07/02 06:47:50;;;;;;;19.95;10.07;;;17.20;99.90;;;;;;4882908;29;20506;-79
2023/07/02 06:50:16;;;;;;;17.85;9.50;;;17.30;99.90;;;;;;4882426;29;20037;-79
2023/07/02 06:52:42;;;;;;;20.45;9.45;;;17.40;99.90;;;;;;4891989;29;20096;-79
2023/07/02 06:55:08;;;;;;;17.77;9.75;;;17.50;99.90;;;;;;4881816;29;20039;-79
2023/07/02 06:57:33;;;;;;;19.55;10.23;;;17.60;99.90;;;;;;4882482;29;20046;-79
2023/07/02 06:59:59;;;;;;;17.85;9.05;;;17.50;99.90;;;;;;4867129;29;20055;-79
2023/07/02 07:02:25;;;;;;;17.33;9.35;;;17.50;99.90;;;;;;4886022;29;20037;-79
2023/07/02 07:04:50;;;;;;;15.48;8.52;;;17.50;99.90;;;;;;4881629;29;20033;-82
2023/07/02 07:07:16;;;;;;;18.65;9.10;;;17.60;99.90;;;;;;4882443;29;20419;-82
2023/07/02 07:09:42;;;;;;;15.90;9.07;;;17.70;99.90;;;;;;4882328;29;20056;-83
2023/07/02 07:12:07;;;;;;;17.73;8.60;;;17.70;99.90;;;;;;4887289;29;20079;-82
2023/07/02 07:14:33;;;;;;;16.70;8.52;;;17.60;99.90;;;;;;4882466;29;20041;-81
2023/07/02 07:16:58;;;;;;;17.38;8.32;;;17.60;99.90;;;;;;4881706;29;20047;-80
2023/07/02 07:19:24;;;;;;;15.73;8.02;;;17.40;99.90;;;;;;4881345;29;20033;-80
2023/07/02 07:21:50;;;;;;;15.45;8.75;;;17.40;99.90;;;;;;4883440;29;20040;-81
2023/07/02 07:24:15;;;;;;;17.35;8.00;;;17.30;99.90;;;;;;4891987;29;20047;-80
2023/07/02 07:26:41;;;;;;;16.63;7.78;;;17.20;99.90;;;;;;4881965;29;20471;-83
2023/07/02 07:29:06;;;;;;;16.15;8.10;;;17.40;99.90;;;;;;4882363;29;20044;-83
2023/07/02 07:31:32;;;;;;;16.05;7.18;;;17.70;99.90;;;;;;4881807;29;20054;-83
2023/07/02 07:33:57;;;;;;;14.90;7.50;;;17.90;99.90;;;;;;4897939;29;20048;-83
2023/07/02 07:36:23;;;;;;;13.50;7.63;;;18.00;99.90;;;;;;4897695;29;20066;-82
2023/07/02 07:38:49;;;;;;;15.27;7.25;;;17.80;99.90;;;;;;4882097;29;20048;-83
2023/07/02 07:41:14;;;;;;;16.08;7.95;;;17.60;99.90;;;;;;4874989;29;20085;-83
2023/07/02 07:43:40;;;;;;;15.88;7.10;;;17.50;99.90;;;;;;4897843;29;20400;-83
2023/07/02 07:46:05;;;;;;;13.57;6.82;;;17.50;99.90;;;;;;4871980;29;20119;-83
2023/07/02 07:48:31;;;;;;;13.07;6.80;;;17.70;99.90;;;;;;4856898;29;20041;-83
2023/07/02 07:50:57;;;;;;;12.27;6.40;;;18.20;99.90;;;;;;4864161;29;20044;-84
2023/07/02 07:53:22;;;;;;;12.40;6.05;;;18.80;99.90;;;;;;4892256;29;20037;-83
2023/07/02 07:55:48;;;;;;;16.30;5.80;;;19.60;99.90;;;;;;4891509;29;20119;-84
2023/07/02 07:58:13;;;;;;;10.60;5.50;;;20.30;99.90;;;;;;4883294;29;20123;-83
2023/07/02 08:00:39;;;;;;;13.63;5.55;;;20.50;99.90;;;;;;4865977;29;20063;-84
2023/07/02 08:03:05;;;;;;;12.98;6.05;;;21.10;99.90;;;;;;4869198;29;20044;-84
2023/07/02 08:05:31;;;;;;;10.32;5.18;;;21.60;99.90;;;;;;4867462;29;20040;-83
2023/07/02 08:07:57;;;;;;;11.48;5.65;;;21.70;99.90;;;;;;4865718;29;20071;-84
2023/07/02 08:10:24;;;;;;;11.30;5.60;;;21.30;99.90;;;;;;4880917;29;20048;-83
2023/07/02 08:12:52;;;;;;;11.07;5.18;;;21.30;99.90;;;;;;4881565;29;20044;-83
2023/07/02 08:15:17;;;;;;;25.05;5.90;;;21.90;99.90;;;;;;4880597;29;20407;-80
2023/07/02 08:17:43;;;;;;;10.27;4.80;;;21.80;99.90;;;;;;4896695;29;20043;-82
2023/07/02 08:20:10;;;;;;;11.25;5.55;;;21.60;99.90;;;;;;4865609;29;20412;-83
2023/07/02 08:22:39;;;;;;;10.65;5.03;;;21.40;99.90;;;;;;4881150;29;20101;-82
2023/07/02 08:25:06;;;;;;;9.07;4.07;;;21.30;99.90;;;;;;4874295;29;20092;-82
2023/07/02 08:27:34;;;;;;;7.90;3.67;;;21.30;99.90;;;;;;4886735;29;20579;-81
2023/07/02 08:30:00;;;;;;;8.05;3.90;;;21.30;99.90;;;;;;4886872;29;20048;-81
2023/07/02 08:32:25;;;;;;;8.75;3.90;;;21.20;99.90;;;;;;4878060;29;20503;-80
2023/07/02 08:34:51;;;;;;;6.20;3.65;;;21.20;99.90;;;;;;4865032;29;20075;-80
2023/07/02 08:37:21;;;;;;;10.25;4.40;;;21.20;99.90;;;;;;4883690;29;20036;-90
2023/07/02 08:39:48;;;;;;;9.65;4.32;;;21.10;99.90;;;;;;4866447;29;20092;-85
2023/07/02 08:42:14;;;;;;;10.05;4.25;;;20.80;99.90;;;;;;4865268;29;20468;-85
2023/07/02 08:44:39;;;;;;;8.48;4.85;;;20.40;99.90;;;;;;4881447;29;20043;-87
2023/07/02 08:47:06;;;;;;;10.38;4.50;;;20.30;99.90;;;;;;4888735;29;20395;-86
2023/07/02 08:49:31;;;;;;;11.02;4.97;;;20.50;99.90;;;;;;4881071;29;20056;-88
2023/07/02 08:51:58;;;;;;;11.52;4.90;;;20.90;99.90;;;;;;4896418;29;20036;-88
2023/07/02 08:54:23;;;;;;;8.48;4.32;;;21.00;99.90;;;;;;4872289;29;20377;-86
2023/07/02 08:56:50;;;;;;;11.48;5.13;;;20.90;99.90;;;;;;4889507;29;20135;-88
2023/07/02 08:59:16;;;;;;;11.45;5.25;;;20.60;99.90;;;;;;4880933;29;20143;-87
2023/07/02 09:01:52;;;;;;;10.68;5.90;;;20.30;99.90;;;;;;4896249;29;20513;-88
2023/07/02 09:04:19;;;;;;;12.35;6.10;;;20.00;99.90;;;;;;4879010;29;20041;-86
2023/07/02 09:06:45;;;;;;;12.02;6.50;;;19.60;99.90;;;;;;4888642;29;20052;-85
2023/07/02 09:09:10;;;;;;;12.23;6.93;;;19.50;99.90;;;;;;4880740;29;20044;-88
2023/07/02 09:11:49;;;;;;;13.60;6.43;;;19.40;99.90;;;;;;4880602;29;20040;-86
2023/07/02 09:14:29;;;;;;;10.95;6.60;;;19.70;99.90;;;;;;4876222;29;20041;-86
2023/07/02 09:17:06;;;;;;;12.18;6.50;;;20.30;99.90;;;;;;4887730;29;20054;-86
2023/07/02 09:20:04;;;;;;;12.93;6.10;;;20.30;99.90;;;;;;4941926;23;20048;-80
2023/07/02 09:22:50;;;;;;;12.57;6.30;;;20.10;99.90;;;;;;4922518;29;20051;-80
2023/07/02 09:29:26;;;;;;;13.82;6.85;;;19.40;99.90;;;;;;4878194;29;20047;-80
2023/07/02 09:32:38;;;;;;;11.48;6.43;;;19.00;99.90;;;;;;4893611;29;20048;-79
2023/07/02 10:02:01;;;;;;;;;;;;;;;;;;;;;
2023/07/02 10:34:54;;;;;;;9.77;4.60;;;21.20;99.90;;;;;;4813274;29;20046;-82
2023/07/02 10:49:17;;;;;;;9.10;4.68;;;23.50;99.90;;;;;;5010362;23;20058;-80
2023/07/02 10:52:09;;;;;;;10.20;4.57;;;24.40;99.90;;;;;;4897558;29;20448;-78
2023/07/02 10:54:54;;;;;;;7.85;4.28;;;25.00;73.70;;;;;;4906123;29;20040;-79
2023/07/02 10:57:27;;;;;;;10.18;4.10;;;25.20;84.40;;;;;;4906858;29;20063;-79
2023/07/02 11:04:09;;;;;;;10.15;4.10;;;25.60;69.60;;;;;;4907171;29;20093;-80
2023/07/02 11:07:12;;;;;;;7.07;4.30;;;25.90;70.90;;;;;;4928308;29;20075;-79
2023/07/02 11:10:38;;;;;;;;;;;;;;;;;;;;;
2023/07/02 11:17:05;;;;;;;9.25;3.92;;;26.10;70.90;;;;;;4885054;29;20111;-79
2023/07/02 11:19:59;;;;;;;10.90;4.35;;;26.90;68.70;;;;;;4902750;29;20042;-78
2023/07/02 11:22:41;;;;;;;8.82;4.03;;;27.00;65.30;;;;;;4909758;29;20039;-79
2023/07/02 11:29:16;;;;;;;9.98;4.05;;;27.30;64.90;;;;;;4922403;29;20044;-79
2023/07/02 11:32:16;;;;;;;7.18;4.10;;;27.50;66.10;;;;;;4893710;29;20044;-79
2023/07/02 11:35:05;;;;;;;8.30;3.67;;;27.60;60.10;;;;;;4900527;29;20049;-79
2023/07/02 11:37:39;;;;;;;8.63;3.78;;;27.20;61.20;;;;;;4904173;29;20132;-79
2023/07/02 11:40:40;;;;;;;6.15;3.58;;;26.70;63.00;;;;;;4897136;29;20531;-80
2023/07/02 11:43:22;;;;;;;;;;;;;;;;;;;;;
2023/07/02 11:46:26;;;;;;;7.03;3.47;;;25.20;63.70;;;;;;4922723;29;20106;-81
2023/07/02 11:49:58;;;;;;;8.35;3.80;;;24.60;64.30;;;;;;4939057;23;20539;-80
2023/07/02 11:56:13;;;;;;;;;;;;;;;;;;;;;
2023/07/02 11:59:10;;;;;;;7.28;3.70;;;23.00;68.10;;;;;;4861249;29;20059;-81
2023/07/02 12:04:17;;;;;;;8.85;3.60;;;23.10;67.80;;;;;;4923458;29;20502;-77
2023/07/02 12:06:43;;;;;;;6.47;3.85;;;23.10;68.20;;;;;;4908580;29;20043;-76
2023/07/02 12:09:09;;;;;;;7.28;3.83;;;23.00;68.20;;;;;;4915584;29;20039;-77
2023/07/02 12:11:35;;;;;;;9.02;3.72;;;22.90;68.40;;;;;;4899839;29;20043;-77
2023/07/02 12:14:01;;;;;;;7.80;3.83;;;22.80;68.60;;;;;;4920425;29;20478;-77
2023/07/02 12:16:26;;;;;;;7.93;3.95;;;23.00;73.50;;;;;;4910122;29;20134;-77
2023/07/02 12:18:52;;;;;;;9.35;4.00;;;23.30;73.30;;;;;;4914411;29;20510;-78
2023/07/02 12:21:18;;;;;;;6.65;3.45;;;23.80;74.80;;;;;;4899697;29;20074;-78
2023/07/02 12:23:44;;;;;;;6.82;3.72;;;24.50;79.30;;;;;;4912123;29;20054;-78
2023/07/02 12:26:09;;;;;;;7.47;3.80;;;24.90;67.60;;;;;;4918501;29;20126;-78
2023/07/02 12:28:35;;;;;;;11.23;3.83;;;24.70;63.60;;;;;;4918901;29;20091;-77
2023/07/02 12:31:02;;;;;;;8.02;3.97;;;24.00;64.10;;;;;;4899748;29;20051;-77
2023/07/02 12:33:28;;;;;;;7.90;3.50;;;23.50;65.80;;;;;;4916547;29;20044;-77
2023/07/02 12:35:53;;;;;;;9.10;3.80;;;23.20;67.60;;;;;;4911282;29;20480;-78
2023/07/02 12:38:19;;;;;;;7.97;3.88;;;23.20;68.30;;;;;;4883216;29;20522;-77
2023/07/02 12:40:44;;;;;;;6.05;3.75;;;23.30;68.00;;;;;;4883333;29;20040;-77
2023/07/02 12:43:10;;;;;;;7.88;3.63;;;23.30;68.40;;;;;;4916016;29;20047;-78
2023/07/02 12:45:35;;;;;;;8.05;3.80;;;23.00;65.70;;;;;;4918241;29;20470;-77
2023/07/02 12:48:01;;;;;;;7.90;3.90;;;22.60;68.00;;;;;;4922895;29;20098;-77
2023/07/02 12:50:27;;;;;;;11.18;4.47;;;22.40;69.80;;;;;;4914384;29;20051;-78
2023/07/02 12:52:52;;;;;;;8.85;5.00;;;22.30;67.40;;;;;;4912478;29;20044;-77
2023/07/02 12:55:18;;;;;;;8.90;4.50;;;22.10;66.80;;;;;;4930926;29;20036;-77
2023/07/02 12:57:43;;;;;;;9.73;4.95;;;22.10;66.70;;;;;;4909739;29;20036;-77
2023/07/02 13:00:09;;;;;;;7.75;4.10;;;22.30;71.90;;;;;;4913814;29;20032;-77
2023/07/02 13:02:35;;;;;;;6.32;4.57;;;22.90;69.60;;;;;;4914453;29;20163;-77
2023/07/02 13:05:01;;;;;;;10.55;4.30;;;23.50;60.70;;;;;;4903343;29;20104;-77
2023/07/02 13:07:29;;;;;;;8.38;5.47;;;24.10;61.30;;;;;;4898479;29;20036;-77
2023/07/02 13:09:55;;;;;;;7.18;4.60;;;24.90;62.00;;;;;;4883489;29;20183;-79
2023/07/02 13:12:21;;;;;;;7.57;4.32;;;25.70;63.30;;;;;;4897585;29;20114;-77
2023/07/02 13:14:46;;;;;;;11.88;4.97;;;26.10;58.70;;;;;;4917908;29;20039;-77
2023/07/02 13:17:12;;;;;;;9.70;4.38;;;25.80;55.70;;;;;;4931453;29;20046;-77
2023/07/02 13:19:38;;;;;;;7.28;4.75;;;25.40;58.90;;;;;;4899079;29;20051;-78
2023/07/02 13:22:03;;;;;;;10.43;4.85;;;25.30;58.70;;;;;;4900787;29;20051;-77
2023/07/02 13:24:36;;;;;;;6.57;4.68;;;25.40;61.30;;;;;;4914520;29;20048;-77
2023/07/02 13:27:03;;;;;;;;;;;25.70;58.70;;;;;;4898670;29;20659;-77
2023/07/02 13:29:29;;;;;;;7.63;5.22;;;25.60;58.00;;;;;;4897604;29;19919;-78
2023/07/02 13:31:54;;;;;;;8.95;4.38;;;25.30;59.60;;;;;;4883198;29;20407;-78
2023/07/02 13:34:20;;;;;;;8.13;4.75;;;25.60;59.50;;;;;;4907839;29;20119;-78
2023/07/02 13:36:46;;;;;;;8.07;4.78;;;25.60;55.00;;;;;;4898457;29;20546;-77
2023/07/02 13:39:11;;;;;;;12.68;4.88;;;25.30;55.90;;;;;;4897403;29;20042;-77
2023/07/02 13:41:37;;;;;;;9.27;4.90;;;25.00;56.90;;;;;;4897160;29;20389;-77
2023/07/02 13:44:02;;;;;;;10.20;4.90;;;24.60;57.60;;;;;;4913573;29;20044;-78
2023/07/02 13:46:28;;;;;;;8.27;4.72;;;24.30;58.40;;;;;;4909001;29;20094;-77
2023/07/02 13:48:54;;;;;;;10.07;5.07;;;24.30;60.50;;;;;;4902161;29;20037;-77
2023/07/02 13:51:19;;;;;;;9.95;4.90;;;24.30;59.30;;;;;;4898485;29;20032;-77
2023/07/02 13:53:45;;;;;;;8.77;5.00;;;24.10;59.00;;;;;;4912597;29;20044;-78
2023/07/02 13:56:10;;;;;;;9.52;4.78;;;24.00;60.00;;;;;;4917214;29;20127;-77
2023/07/02 13:58:47;;;;;;;8.38;4.88;;;23.80;60.30;;;;;;4905141;29;20040;-77
2023/07/02 14:01:13;;;;;;;7.95;4.70;;;23.40;59.90;;;;;;4898575;29;20048;-76
2023/07/02 14:03:38;;;;;;;10.50;4.93;;;23.10;60.40;;;;;;4904760;29;20313;-77
2023/07/02 14:06:04;;;;;;;9.82;4.95;;;22.80;62.70;;;;;;4896060;29;20039;-77
2023/07/02 14:08:29;;;;;;;13.27;5.07;;;22.70;65.20;;;;;;4908821;29;20638;-77
2023/07/02 14:10:55;;;;;;;14.70;5.57;;;22.80;65.70;;;;;;4886390;29;20060;-77
2023/07/02 14:13:21;;;;;;;18.17;4.90;;;23.00;62.70;;;;;;4909470;29;20141;-77
2023/07/02 14:15:46;;;;;;;7.43;4.82;;;23.10;60.80;;;;;;4916920;29;20057;-77